Time;durP1;ratioP1;P1;durP2;ratioP2;P2;SDS_P1;SDS_P2;PMS_P1;PMS_P2;Temp;Humidity;BMP_temperature;BMP_pressure;BME280_temperature;BME280_humidity;BME280_pressure;Samples;Min_cycle;Max_cycle;Signal;HPM_P1;HPM_P2
2022/05/07 00:02:09;;;;;;;3.78;0.60;;;;;;;17.04;78.46;101955.22;7383726;19;20014;-65
2022/05/07 00:04:37;;;;;;;6.05;0.63;;;;;;;17.01;79.80;101963.53;7382291;19;20010;-67
2022/05/07 00:07:06;;;;;;;2.42;0.60;;;;;;;16.95;80.35;101964.19;7383281;19;20102;-65
2022/05/07 00:09:35;;;;;;;3.63;0.88;;;;;;;16.90;80.39;101965.69;7386835;19;20467;-65
2022/05/07 00:12:06;;;;;;;1.98;0.50;;;;;;;16.83;80.85;101973.47;7386445;19;20022;-65
2022/05/07 00:14:34;;;;;;;3.80;1.13;;;;;;;16.80;81.25;101965.84;7384648;19;20361;-64
2022/05/07 00:19:39;;;;;;;3.15;1.00;;;;;;;16.74;81.45;101965.66;7386061;19;20819;-65
2022/05/07 00:22:06;;;;;;;4.30;0.50;;;;;;;16.66;80.87;101956.69;7381507;19;20010;-64
2022/05/07 00:24:33;;;;;;;4.40;0.40;;;;;;;16.63;81.77;101950.88;7386252;19;20035;-67
2022/05/07 00:27:00;;;;;;;3.45;0.95;;;;;;;16.60;82.87;101940.59;7382617;19;20011;-67
2022/05/07 00:29:27;;;;;;;2.63;0.70;;;;;;;16.57;82.90;101941.69;7386869;19;20010;-66
2022/05/07 00:31:54;;;;;;;2.10;0.50;;;;;;;16.53;83.26;101940.38;7390604;19;20074;-65
2022/05/07 00:34:22;;;;;;;1.35;0.55;;;;;;;16.51;83.86;101933.53;7391702;19;20467;-64
2022/05/07 00:36:49;;;;;;;2.67;0.60;;;;;;;16.47;84.15;101940.19;7393954;19;20032;-65
2022/05/07 00:39:16;;;;;;;4.05;0.80;;;;;;;16.46;84.33;101943.81;7393594;19;20014;-64
2022/05/07 00:41:43;;;;;;;2.95;0.70;;;;;;;16.45;84.21;101944.84;7388469;19;20031;-67
2022/05/07 00:44:10;;;;;;;3.58;0.60;;;;;;;16.44;84.80;101954.63;7392807;19;20022;-66
2022/05/07 00:46:40;;;;;;;2.42;0.90;;;;;;;16.41;85.18;101952.28;7392624;19;20018;-65
2022/05/07 00:49:07;;;;;;;6.32;1.83;;;;;;;16.40;85.35;101957.78;7389587;19;20018;-68
2022/05/07 00:51:38;;;;;;;2.47;0.90;;;;;;;16.35;85.24;101946.81;7387145;19;20025;-66
2022/05/07 00:54:07;;;;;;;2.90;0.68;;;;;;;16.31;84.89;101940.97;7389067;19;20007;-68
2022/05/07 00:56:37;;;;;;;1.98;0.63;;;;;;;16.32;85.85;101950.63;7390470;19;20021;-65
2022/05/07 00:59:05;;;;;;;7.22;4.63;;;;;;;16.30;85.45;101947.31;7388495;19;20014;-65
2022/05/07 01:01:33;;;;;;;8.63;1.40;;;;;;;16.30;85.83;101942.00;7391671;19;20599;-67
2022/05/07 01:04:00;;;;;;;1.83;0.70;;;;;;;16.33;85.38;101938.16;7392243;19;20002;-66
2022/05/07 01:06:28;;;;;;;4.95;0.70;;;;;;;16.33;85.50;101946.13;7392665;19;20114;-66
2022/05/07 01:08:55;;;;;;;2.08;0.70;;;;;;;16.32;85.43;101944.47;7393333;19;20014;-66
2022/05/07 01:11:22;;;;;;;7.05;1.70;;;;;;;16.32;86.14;101936.50;7390046;19;20015;-66
2022/05/07 01:13:50;;;;;;;2.67;0.73;;;;;;;16.33;85.77;101940.81;7391460;19;20031;-65
2022/05/07 01:16:17;;;;;;;4.35;0.77;;;;;;;16.33;85.61;101938.16;7393433;19;20550;-67
2022/05/07 01:18:44;;;;;;;3.47;0.73;;;;;;;16.33;85.99;101933.69;7389741;19;20014;-66
2022/05/07 01:21:14;;;;;;;3.20;1.38;;;;;;;16.34;86.15;101927.38;7390811;19;20019;-66
2022/05/07 01:23:44;;;;;;;2.75;0.98;;;;;;;16.35;86.15;101934.38;7391067;19;20082;-66
2022/05/07 01:26:11;;;;;;;6.18;0.85;;;;;;;16.28;84.99;101933.34;7391085;19;20045;-67
2022/05/07 01:28:38;;;;;;;2.65;0.90;;;;;;;16.23;84.61;101925.03;7389428;19;20014;-65
2022/05/07 01:31:06;;;;;;;4.63;0.77;;;;;;;16.23;85.23;101931.19;7390731;19;20044;-67
2022/05/07 01:33:34;;;;;;;4.65;1.05;;;;;;;16.26;85.89;101922.03;7387892;19;20018;-65
2022/05/07 01:36:02;;;;;;;3.10;0.80;;;;;;;16.29;85.75;101928.88;7389998;19;20081;-66
2022/05/07 01:38:40;;;;;;;5.32;1.42;;;;;;;16.26;86.26;101917.56;7390869;19;20019;-66
2022/05/07 01:41:07;;;;;;;5.50;0.90;;;;;;;16.25;86.42;101918.56;7386127;19;20572;-66
2022/05/07 01:43:34;;;;;;;2.30;0.73;;;;;;;16.20;85.39;101915.56;7388777;19;20013;-66
2022/05/07 01:46:02;;;;;;;5.65;1.70;;;;;;;16.22;86.65;101913.56;7389724;19;20007;-65
2022/05/07 01:48:29;;;;;;;3.00;0.80;;;;;;;16.25;86.62;101909.78;7387062;19;20089;-66
2022/05/07 01:50:57;;;;;;;1.95;1.08;;;;;;;16.28;86.21;101917.41;7387062;19;20027;-65
2022/05/07 01:53:24;;;;;;;4.25;1.05;;;;;;;16.29;87.05;101916.41;7391882;19;20018;-66
2022/05/07 01:55:51;;;;;;;3.22;0.90;;;;;;;16.31;86.79;101916.22;7391876;19;20041;-64
2022/05/07 01:58:18;;;;;;;27.80;2.80;;;;;;;16.26;86.41;101914.91;7391224;19;20052;-66
2022/05/07 02:00:45;;;;;;;4.13;1.48;;;;;;;16.28;86.61;101912.09;7390353;19;20011;-67
2022/05/07 02:03:12;;;;;;;4.93;0.90;;;;;;;16.26;86.03;101908.75;7387626;19;20476;-66
2022/05/07 02:05:39;;;;;;;1.40;0.82;;;;;;;16.24;85.41;101908.09;7389182;19;20070;-64
2022/05/07 02:08:06;;;;;;;3.63;1.08;;;;;;;16.25;86.16;101905.28;7391356;19;20010;-66
2022/05/07 02:10:33;;;;;;;2.15;0.70;;;;;;;16.26;85.88;101904.28;7387989;19;20015;-66
2022/05/07 02:13:01;;;;;;;2.20;0.60;;;;;;;16.29;86.09;101907.63;7390628;19;20074;-66
2022/05/07 02:15:29;;;;;;;3.58;1.05;;;;;;;16.33;86.69;101904.47;7386879;19;20029;-66
2022/05/07 02:17:56;;;;;;;2.00;1.00;;;;;;;16.33;85.83;101903.63;7390490;19;20010;-66
2022/05/07 02:20:24;;;;;;;1.75;0.77;;;;;;;16.36;86.11;101901.47;7386478;19;20044;-66
2022/05/07 02:22:55;;;;;;;2.72;1.00;;;;;;;16.35;85.53;101906.97;7389712;19;20495;-67
2022/05/07 02:25:23;;;;;;;2.80;0.70;;;;;;;16.30;85.26;101909.28;7389934;19;20030;-66
2022/05/07 02:27:50;;;;;;;3.67;0.80;;;;;;;16.30;86.07;101902.16;7390035;19;20011;-65
2022/05/07 02:30:19;;;;;;;5.63;3.45;;;;;;;16.32;87.94;101905.47;7386382;19;20011;-65
2022/05/07 02:32:47;;;;;;;2.67;0.75;;;;;;;16.34;86.96;101903.47;7385573;19;20475;-66
2022/05/07 02:35:14;;;;;;;3.13;0.80;;;;;;;16.35;86.04;101918.44;7390714;19;20015;-65
2022/05/07 02:37:41;;;;;;;5.60;2.85;;;;;;;16.34;87.46;101906.13;7390982;19;20022;-66
2022/05/07 02:40:09;;;;;;;3.80;0.98;;;;;;;16.37;87.03;101907.63;7385431;19;20010;-64
2022/05/07 02:42:37;;;;;;;3.88;0.75;;;;;;;16.37;86.25;101904.97;7388595;19;20392;-65
2022/05/07 02:45:06;;;;;;;3.72;1.02;;;;;;;16.35;86.59;101909.63;7385587;19;20037;-65
2022/05/07 02:47:34;;;;;;;2.65;1.20;;;;;;;16.35;86.37;101914.94;7389981;19;20024;-67
2022/05/07 02:50:04;;;;;;;7.43;1.58;;;;;;;16.32;85.87;101910.78;7386220;19;20010;-66
2022/05/07 02:52:33;;;;;;;5.75;1.20;;;;;;;16.30;86.36;101909.28;7386692;19;20007;-65
2022/05/07 02:55:01;;;;;;;3.83;1.35;;;;;;;16.29;85.96;101913.75;7386479;19;20341;-65
2022/05/07 02:57:28;;;;;;;4.80;1.23;;;;;;;16.26;85.57;101908.75;7387654;19;20014;-64
2022/05/07 02:59:55;;;;;;;6.10;1.50;;;;;;;16.22;86.26;101904.78;7387630;19;20019;-65
2022/05/07 03:02:23;;;;;;;2.00;0.90;;;;;;;16.20;86.15;101915.56;7385748;19;20098;-66
2022/05/07 03:04:51;;;;;;;8.82;2.15;;;;;;;16.18;85.81;101916.72;7385996;19;20014;-67
2022/05/07 03:07:19;;;;;;;3.42;1.65;;;;;;;16.15;86.21;101911.75;7386154;19;20011;-65
2022/05/07 03:09:46;;;;;;;2.70;1.10;;;;;;;16.16;85.99;101911.56;7389818;19;20609;-65
2022/05/07 03:12:13;;;;;;;4.50;1.90;;;;;;;16.16;85.85;101914.22;7388511;19;20014;-66
2022/05/07 03:14:40;;;;;;;4.50;1.40;;;;;;;16.19;87.15;101913.09;7388406;19;20017;-66
2022/05/07 03:17:07;;;;;;;3.10;1.00;;;;;;;16.16;86.53;101914.22;7384495;19;20015;-64
2022/05/07 03:19:34;;;;;;;5.20;1.70;;;;;;;16.16;86.53;101903.59;7385701;19;20021;-66
2022/05/07 03:22:01;;;;;;;3.47;1.77;;;;;;;16.17;87.01;101904.44;7386448;19;20382;-65
2022/05/07 03:24:28;;;;;;;3.75;1.40;;;;;;;16.18;87.15;101908.75;7388593;19;20043;-64
2022/05/07 03:26:55;;;;;;;3.10;1.33;;;;;;;16.17;86.71;101909.75;7388722;19;20010;-65
2022/05/07 03:29:22;;;;;;;4.68;1.38;;;;;;;16.18;87.09;101906.94;7387742;19;20038;-66
2022/05/07 03:31:49;;;;;;;3.45;1.13;;;;;;;16.18;87.17;101908.75;7385096;19;20393;-67
2022/05/07 03:34:16;;;;;;;1.90;1.00;;;;;;;16.19;87.26;101911.25;7387435;19;20035;-65
2022/05/07 03:36:43;;;;;;;6.10;2.50;;;;;;;16.18;87.63;101904.28;7386968;19;20055;-64
2022/05/07 03:39:12;;;;;;;6.15;1.83;;;;;;;16.19;87.59;101913.09;7387111;19;20479;-65
2022/05/07 03:41:40;;;;;;;3.33;1.58;;;;;;;16.17;87.03;101913.22;7382984;19;20014;-64
2022/05/07 03:44:07;;;;;;;3.80;1.73;;;;;;;16.18;87.29;101916.72;7386229;19;20460;-67
2022/05/07 03:46:34;;;;;;;6.40;1.83;;;;;;;16.17;87.33;101917.72;7385372;19;20007;-65
2022/05/07 03:49:01;;;;;;;5.38;1.67;;;;;;;16.16;87.48;101916.88;7384404;19;20014;-67
2022/05/07 03:51:29;;;;;;;5.10;1.88;;;;;;;16.13;86.79;101921.69;7384386;19;20042;-66
2022/05/07 03:53:56;;;;;;;3.33;1.60;;;;;;;16.13;87.00;101924.34;7384673;19;20011;-64
2022/05/07 03:56:23;;;;;;;3.10;1.80;;;;;;;16.11;87.65;101918.34;7384860;19;20048;-65
2022/05/07 03:58:50;;;;;;;4.05;1.63;;;;;;;16.10;87.90;101927.34;7387857;19;20029;-66
2022/05/07 04:01:17;;;;;;;12.63;6.10;;;;;;;16.07;88.43;101923.16;7388777;19;20034;-65
2022/05/07 04:03:44;;;;;;;3.63;1.60;;;;;;;16.06;88.65;101926.81;7385215;19;20125;-67
2022/05/07 04:06:11;;;;;;;3.55;1.73;;;;;;;16.06;88.87;101925.97;7391659;19;20029;-64
2022/05/07 04:08:38;;;;;;;3.30;1.80;;;;;;;16.06;89.25;101932.13;7392148;19;20010;-65
2022/05/07 04:11:05;;;;;;;4.72;2.60;;;;;;;16.05;90.11;101927.00;7393069;19;20038;-66
2022/05/07 04:13:32;;;;;;;4.07;2.50;;;;;;;16.05;89.85;101925.13;7395403;19;20014;-65
2022/05/07 04:15:59;;;;;;;8.57;3.53;;;;;;;16.04;89.74;101931.47;7392949;19;20011;-66
2022/05/07 04:18:26;;;;;;;6.90;3.92;;;;;;;16.02;89.54;101927.28;7392433;19;20381;-65
2022/05/07 04:20:54;;;;;;;8.27;4.47;;;;;;;16.03;90.09;101935.09;7392730;19;20019;-65
2022/05/07 04:23:21;;;;;;;8.00;3.83;;;;;;;16.04;90.10;101930.63;7392865;19;20015;-67
2022/05/07 04:25:48;;;;;;;6.80;4.03;;;;;;;16.02;89.58;101927.28;7393494;19;20014;-66
2022/05/07 04:28:14;;;;;;;9.95;4.65;;;;;;;16.02;89.92;101921.97;7394815;19;20018;-67
2022/05/07 04:30:41;;;;;;;10.70;6.13;;;;;;;16.03;90.13;101924.50;7394801;19;20572;-64
2022/05/07 04:33:09;;;;;;;13.13;7.65;;;;;;;16.04;89.64;101930.63;7395154;19;20048;-66
2022/05/07 04:35:36;;;;;;;11.60;7.68;;;;;;;16.03;89.54;101927.13;7392000;19;20011;-66
2022/05/07 04:38:03;;;;;;;12.05;7.60;;;;;;;16.03;89.79;101932.44;7393670;19;20048;-68
2022/05/07 04:40:30;;;;;;;12.68;8.38;;;;;;;16.06;90.39;101928.63;7389656;19;20578;-66
2022/05/07 04:42:57;;;;;;;11.43;6.97;;;;;;;16.04;89.68;101935.94;7393691;19;20019;-65
2022/05/07 04:45:25;;;;;;;9.93;6.15;;;;;;;16.03;90.06;101939.59;7392294;19;20018;-67
2022/05/07 04:47:52;;;;;;;15.48;8.48;;;;;;;16.01;89.77;101939.72;7391188;19;20038;-66
2022/05/07 04:50:19;;;;;;;11.63;6.97;;;;;;;16.01;90.46;101942.38;7391674;19;20010;-65
2022/05/07 04:52:46;;;;;;;8.80;5.57;;;;;;;16.01;90.21;101946.88;7390934;19;20481;-66
2022/05/07 04:55:13;;;;;;;9.35;4.93;;;;;;;16.00;89.63;101942.56;7390332;19;20010;-66
2022/05/07 04:57:41;;;;;;;30.55;15.73;;;;;;;15.96;89.68;101938.53;7392306;19;20010;-67
2022/05/07 05:00:09;;;;;;;7.60;4.95;;;;;;;15.98;89.78;101947.19;7394146;19;20010;-66
2022/05/07 05:02:36;;;;;;;8.88;4.68;;;;;;;15.99;89.42;101947.03;7390936;19;20535;-64
2022/05/07 05:05:04;;;;;;;8.02;4.20;;;;;;;16.00;89.36;101942.56;7390542;19;20544;-65
2022/05/07 05:07:31;;;;;;;6.95;3.80;;;;;;;16.02;89.36;101946.72;7390702;19;20360;-65
2022/05/07 05:09:58;;;;;;;7.68;4.28;;;;;;;16.04;89.38;101946.56;7392299;19;20015;-66
2022/05/07 05:12:26;;;;;;;6.10;3.72;;;;;;;16.05;89.26;101953.53;7391773;19;20086;-67
2022/05/07 05:17:31;;;;;;;9.27;3.15;;;;;;;16.08;89.99;101962.00;7389052;19;20015;-67
2022/05/07 05:20:00;;;;;;;4.05;2.80;;;;;;;16.11;89.92;101963.50;7394105;19;20479;-65
2022/05/07 05:22:28;;;;;;;3.88;2.53;;;;;;;16.07;89.20;101967.47;7389556;19;20034;-64
2022/05/07 05:24:55;;;;;;;5.00;2.58;;;;;;;16.06;89.74;101963.97;7392331;19;20018;-65
2022/05/07 05:27:23;;;;;;;6.22;3.08;;;;;;;16.07;89.58;101967.47;7389951;19;20034;-66
2022/05/07 05:29:50;;;;;;;5.32;2.72;;;;;;;16.07;89.42;101975.44;7391757;19;20026;-65
2022/05/07 05:32:18;;;;;;;6.13;2.83;;;;;;;16.08;89.22;101977.09;7388440;19;20184;-65
2022/05/07 05:34:47;;;;;;;6.10;2.83;;;;;;;16.04;89.08;101981.91;7390925;19;20023;-68
2022/05/07 05:37:15;;;;;;;7.75;3.50;;;;;;;16.06;89.00;101977.25;7388800;19;20006;-65
2022/05/07 05:39:43;;;;;;;5.85;2.78;;;;;;;16.10;89.08;101985.75;7389299;19;20033;-67
2022/05/07 05:42:11;;;;;;;4.80;2.70;;;;;;;16.12;88.78;101989.06;7388456;19;20090;-67
2022/05/07 05:44:39;;;;;;;7.65;3.35;;;;;;;16.10;88.73;101988.41;7388416;19;20010;-66
2022/05/07 05:47:08;;;;;;;5.90;2.67;;;;;;;16.11;88.69;101987.41;7392223;19;20480;-66
2022/05/07 05:49:35;;;;;;;6.03;2.80;;;;;;;16.13;88.43;101988.91;7390612;19;20027;-65
2022/05/07 05:52:04;;;;;;;5.95;2.80;;;;;;;16.12;87.37;101992.56;7386863;19;20011;-65
2022/05/07 05:54:32;;;;;;;4.13;2.45;;;;;;;16.13;87.42;101980.13;7393273;19;20011;-66
2022/05/07 05:56:59;;;;;;;5.82;2.63;;;;;;;16.14;87.55;101990.59;7388401;19;20085;-66
2022/05/07 05:59:27;;;;;;;4.07;2.08;;;;;;;16.14;87.46;101989.75;7390909;19;20034;-65
2022/05/07 06:02:03;;;;;;;4.75;2.83;;;;;;;16.14;87.56;102003.03;7387585;19;20011;-66
2022/05/07 06:04:33;;;;;;;5.32;2.90;;;;;;;16.14;87.93;102000.38;7390744;19;20415;-66
2022/05/07 06:07:00;;;;;;;4.18;2.75;;;;;;;16.16;87.88;102004.50;7389866;19;20407;-66
2022/05/07 06:09:28;;;;;;;5.35;2.58;;;;;;;16.17;87.52;101995.56;7393409;19;20037;-66
2022/05/07 06:11:57;;;;;;;28.20;12.10;;;;;;;16.18;87.34;102005.19;7387495;19;20014;-65
2022/05/07 06:14:24;;;;;;;5.60;3.50;;;;;;;16.23;88.95;101994.94;7389433;19;20011;-68
2022/05/07 06:16:51;;;;;;;5.50;2.50;;;;;;;16.25;87.79;102013.38;7390310;19;20046;-67
2022/05/07 06:19:18;;;;;;;5.03;2.28;;;;;;;16.27;87.41;102008.72;7387565;19;20051;-67
2022/05/07 06:21:45;;;;;;;8.38;3.08;;;;;;;16.27;86.95;102012.19;7388371;19;20014;-64
2022/05/07 06:29:26;;;;;;;5.10;3.22;;;;;;;16.29;85.57;102009.38;7389206;19;20007;-66
2022/05/07 06:31:53;;;;;;;4.82;3.28;;;;;;;16.34;86.10;101998.28;7388739;19;20010;-64
2022/05/07 06:34:22;;;;;;;7.85;2.72;;;;;;;16.39;86.16;101998.63;7386993;19;20003;-66
2022/05/07 06:36:49;;;;;;;6.95;2.85;;;;;;;16.43;85.88;102006.09;7389479;19;20412;-65
2022/05/07 06:39:17;;;;;;;4.55;3.20;;;;;;;16.50;85.46;102003.66;7388874;19;20494;-67
2022/05/07 06:41:44;;;;;;;5.80;2.88;;;;;;;16.51;84.60;102010.59;7387572;19;20022;-66
2022/05/07 06:44:11;;;;;;;5.60;2.35;;;;;;;16.52;84.86;102001.63;7388510;19;20014;-66
2022/05/07 06:46:41;;;;;;;4.45;2.92;;;;;;;16.53;84.88;102017.44;7386515;19;20078;-66
2022/05/07 06:49:08;;;;;;;5.35;2.85;;;;;;;16.57;84.70;102018.75;7388827;19;20111;-68
2022/05/07 06:51:35;;;;;;;5.38;3.03;;;;;;;16.62;84.76;102015.66;7387277;19;20373;-67
2022/05/07 06:54:03;;;;;;;5.38;2.42;;;;;;;16.61;84.62;102016.63;7386788;19;20030;-67
2022/05/07 06:56:30;;;;;;;9.15;5.07;;;;;;;16.60;84.25;102021.16;7386009;19;20018;-65
2022/05/07 06:58:56;;;;;;;4.35;2.75;;;;;;;16.63;84.45;102025.28;7387559;19;20086;-65
2022/05/07 07:01:23;;;;;;;5.45;2.83;;;;;;;16.66;83.76;102027.59;7387225;19;20348;-64
2022/05/07 07:03:51;;;;;;;5.88;3.35;;;;;;;16.65;83.23;102031.28;7388433;19;20042;-65
2022/05/07 07:06:18;;;;;;;5.85;3.45;;;;;;;16.65;83.18;102025.97;7385052;19;20078;-66
2022/05/07 07:08:44;;;;;;;5.82;2.70;;;;;;;16.66;83.54;102028.44;7387957;19;20022;-67
2022/05/07 07:11:12;;;;;;;3.75;2.33;;;;;;;16.69;82.99;102032.63;7387637;19;20018;-66
2022/05/07 07:13:39;;;;;;;5.60;2.63;;;;;;;16.70;82.50;102031.63;7387471;19;20022;-67
2022/05/07 07:16:06;;;;;;;6.38;3.28;;;;;;;16.67;82.53;102035.44;7387230;19;20475;-66
2022/05/07 07:18:33;;;;;;;4.22;2.35;;;;;;;16.64;83.03;102035.78;7385535;19;20011;-65
2022/05/07 07:21:01;;;;;;;8.05;5.43;;;;;;;16.64;83.43;102026.97;7387297;19;20330;-67
2022/05/07 07:23:28;;;;;;;5.55;2.55;;;;;;;16.66;83.97;102033.75;7385814;19;20376;-65
2022/05/07 07:25:57;;;;;;;3.72;2.10;;;;;;;16.70;83.13;102036.94;7386215;19;20074;-67
2022/05/07 07:28:24;;;;;;;3.97;2.65;;;;;;;16.72;82.95;102036.75;7385583;19;20011;-66
2022/05/07 07:30:53;;;;;;;5.95;4.32;;;;;;;16.71;82.92;102035.94;7385632;19;20006;-66
2022/05/07 07:33:20;;;;;;;5.40;3.38;;;;;;;16.75;83.56;102036.44;7384135;19;20048;-65
2022/05/07 07:35:47;;;;;;;4.55;2.45;;;;;;;16.79;82.33;102045.75;7385810;19;20631;-65
2022/05/07 07:38:14;;;;;;;4.28;2.80;;;;;;;16.81;82.88;102047.25;7385192;19;20007;-65
2022/05/07 07:40:43;;;;;;;6.50;3.80;;;;;;;16.87;82.30;102045.75;7388245;19;20480;-67
2022/05/07 07:43:11;;;;;;;5.38;2.83;;;;;;;16.93;81.93;102056.59;7392168;19;20038;-66
2022/05/07 07:48:16;;;;;;;5.60;2.60;;;;;;;16.92;81.79;102054.06;7392567;19;20034;-64
2022/05/07 07:50:45;;;;;;;4.95;2.53;;;;;;;16.89;82.08;102057.91;7395746;19;20022;-64
2022/05/07 07:53:13;;;;;;;5.80;2.45;;;;;;;16.83;83.13;102055.91;7398018;19;20018;-66
2022/05/07 07:55:40;;;;;;;4.32;2.00;;;;;;;16.81;83.26;102057.88;7395265;19;20014;-65
2022/05/07 07:58:09;;;;;;;4.07;2.10;;;;;;;16.77;84.53;102059.19;7391564;19;20010;-65
2022/05/07 08:00:38;;;;;;;3.65;1.48;;;;;;;16.71;84.40;102067.81;7394168;19;20021;-64
2022/05/07 08:03:12;;;;;;;9.35;2.63;;;;;;;16.72;84.72;102064.19;7393257;19;20023;-66
2022/05/07 08:05:45;;;;;;;3.35;1.45;;;;;;;16.73;84.98;102062.34;7393562;19;20638;-67
2022/05/07 08:13:36;;;;;;;3.17;1.40;;;;;;;16.53;84.76;102073.22;7392395;19;20011;-66
2022/05/07 08:16:04;;;;;;;3.65;1.70;;;;;;;16.49;85.47;102068.41;7390952;19;20014;-67
2022/05/07 08:18:32;;;;;;;3.05;1.83;;;;;;;16.38;84.80;102069.53;7390185;19;20034;-66
2022/05/07 08:20:59;;;;;;;4.15;2.30;;;;;;;16.35;85.69;102077.81;7370304;19;20023;-64
2022/05/07 08:23:26;;;;;;;4.68;2.50;;;;;;;16.33;85.27;102073.66;7392282;19;20045;-64
2022/05/07 08:25:54;;;;;;;4.18;2.65;;;;;;;16.36;85.55;102068.84;7386394;19;20014;-66
2022/05/07 08:28:24;;;;;;;5.03;2.53;;;;;;;16.40;85.74;102070.22;7386288;19;20011;-65
2022/05/07 08:30:53;;;;;;;4.07;2.40;;;;;;;16.48;85.40;102069.38;7392295;19;20535;-66
2022/05/07 08:33:21;;;;;;;5.80;3.03;;;;;;;16.55;85.33;102073.09;7390817;19;20010;-66
2022/05/07 08:35:49;;;;;;;5.65;2.78;;;;;;;16.66;84.42;102064.81;7388387;19;20092;-67
2022/05/07 08:38:16;;;;;;;4.25;2.42;;;;;;;16.80;82.83;102060.72;7386564;19;20011;-67
2022/05/07 08:40:44;;;;;;;5.63;2.80;;;;;;;16.92;81.60;102068.22;7389232;19;20020;-66
2022/05/07 08:43:11;;;;;;;7.97;5.05;;;;;;;16.98;81.60;102062.25;7390876;19;20014;-64
2022/05/07 08:45:40;;;;;;;3.53;2.08;;;;;;;17.08;80.82;102067.41;7387631;19;20102;-64
2022/05/07 08:48:08;;;;;;;4.38;2.03;;;;;;;17.18;79.81;102060.09;7388153;19;20006;-66
2022/05/07 08:50:35;;;;;;;4.28;2.20;;;;;;;17.25;79.00;102074.41;7388170;19;20011;-65
2022/05/07 08:53:02;;;;;;;3.58;1.95;;;;;;;17.27;79.00;102077.72;7387752;19;20015;-65
2022/05/07 08:55:30;;;;;;;3.67;1.75;;;;;;;17.32;78.68;102072.72;7388210;19;20105;-66
2022/05/07 08:57:58;;;;;;;3.90;1.90;;;;;;;17.33;78.19;102070.91;7392230;19;20030;-65
2022/05/07 09:00:27;;;;;;;3.97;2.13;;;;;;;17.33;77.50;102071.75;7392577;19;20466;-67
2022/05/07 09:02:57;;;;;;;3.22;1.67;;;;;;;17.41;75.80;102069.09;7386243;19;20406;-65
2022/05/07 09:05:36;;;;;;;2.25;1.20;;;;;;;17.51;73.51;102069.75;7389294;19;20515;-67
2022/05/07 09:08:06;;;;;;;2.92;0.95;;;;;;;17.68;73.25;102064.44;7390256;19;20416;-65
2022/05/07 09:10:37;;;;;;;5.93;3.10;;;;;;;17.89;74.59;102068.22;7389400;19;20317;-66
2022/05/07 09:13:09;;;;;;;14.65;1.92;;;;;;;17.95;69.92;102066.72;7392227;19;20515;-66
2022/05/07 09:15:52;;;;;;;5.25;1.60;;;;;;;17.92;70.34;102065.25;7391137;19;20033;-67
2022/05/07 09:18:20;;;;;;;51.55;3.15;;;;;;;17.90;70.17;102069.06;7389391;19;20006;-68
2022/05/07 09:21:15;;;;;;;2.05;0.90;;;;;;;17.88;71.61;102074.53;7390239;19;20083;-67
2022/05/07 09:23:50;;;;;;;6.78;1.55;;;;;;;17.93;73.13;102072.19;7390633;19;20017;-69
2022/05/07 09:26:30;;;;;;;2.45;0.90;;;;;;;17.92;75.85;102077.72;7391020;19;20011;-68
2022/05/07 09:28:58;;;;;;;3.28;1.10;;;;;;;17.80;72.72;102079.91;7391212;19;20014;-68
2022/05/07 09:31:30;;;;;;;;;;;;;;;17.66;72.85;102075.28;7388972;19;20021;-67
2022/05/07 09:36:52;;;;;;;3.67;1.65;;;;;;;17.83;71.84;102074.22;7390010;19;20014;-68
2022/05/07 09:39:19;;;;;;;3.55;1.10;;;;;;;17.89;70.62;102076.22;7388263;19;20015;-69
2022/05/07 09:41:53;;;;;;;4.47;1.30;;;;;;;18.00;70.82;102076.84;7389182;19;20652;-68
2022/05/07 09:44:24;;;;;;;5.18;1.50;;;;;;;18.11;71.51;102084.50;7387245;19;20428;-68
2022/05/07 09:46:51;;;;;;;2.35;1.08;;;;;;;18.22;70.03;102070.81;7392015;19;20038;-67
2022/05/07 09:49:19;;;;;;;2.97;1.85;;;;;;;18.24;72.58;102079.44;7391862;19;20342;-67
2022/05/07 09:51:48;;;;;;;3.33;2.15;;;;;;;18.16;74.09;102075.00;7389838;19;20073;-68
2022/05/07 09:59:32;;;;;;;5.13;3.28;;;;;;;17.94;75.10;102087.19;7390129;19;20014;-66
2022/05/07 10:02:08;;;;;;;5.15;3.40;;;;;;;17.82;75.83;102090.38;7383963;19;20116;-67
2022/05/07 10:04:44;;;;;;;6.55;4.03;;;;;;;17.72;76.23;102095.91;7387828;19;20078;-68
2022/05/07 10:07:30;;;;;;;5.37;3.40;;;;;;;17.62;76.90;102097.91;7386618;19;20010;-68
2022/05/07 10:10:11;;;;;;;6.45;3.47;;;;;;;17.58;76.96;102093.84;7389351;19;20450;-68
2022/05/07 10:12:44;;;;;;;5.35;2.83;;;;;;;17.47;76.54;102096.88;7386227;19;20093;-67
2022/05/07 10:15:16;;;;;;;5.65;2.97;;;;;;;17.50;76.94;102093.88;7389052;19;20094;-69
2022/05/07 10:17:44;;;;;;;5.05;2.60;;;;;;;17.47;76.16;102103.00;7387687;19;20019;-67
2022/05/07 10:20:12;;;;;;;5.75;3.00;;;;;;;17.43;76.82;102107.00;7387992;19;20062;-68
2022/05/07 10:22:40;;;;;;;5.82;3.40;;;;;;;17.38;77.25;102105.84;7386049;19;20022;-66
2022/05/07 10:25:12;;;;;;;5.47;2.80;;;;;;;17.29;76.78;102115.66;7387365;19;20010;-66
2022/05/07 10:27:41;;;;;;;6.32;2.97;;;;;;;17.22;77.38;102111.16;7384363;19;20033;-68
2022/05/07 10:30:16;;;;;;;6.22;3.17;;;;;;;17.16;77.40;102106.50;7384942;19;20082;-66
2022/05/07 10:32:57;;;;;;;6.70;3.38;;;;;;;17.12;77.62;102113.94;7387134;19;20014;-68
2022/05/07 10:35:43;;;;;;;5.75;2.50;;;;;;;17.06;77.05;102120.78;7383737;19;20007;-69
2022/05/07 10:38:29;;;;;;;6.15;2.70;;;;;;;17.06;77.01;102112.81;7373831;19;20732;-68
2022/05/07 10:41:00;;;;;;;5.13;2.70;;;;;;;17.10;78.78;102114.13;7388442;19;20382;-67
2022/05/07 10:43:32;;;;;;;5.72;2.47;;;;;;;17.15;77.03;102112.81;7382271;19;20519;-66
2022/05/07 10:46:10;;;;;;;5.77;2.57;;;;;;;17.18;77.66;102117.78;7386858;19;20376;-68
2022/05/07 10:48:48;;;;;;;5.45;2.65;;;;;;;17.24;78.90;102123.28;7384005;19;20010;-67
2022/05/07 10:51:26;;;;;;;6.50;3.25;;;;;;;17.25;76.52;102121.47;7384537;19;20019;-68
2022/05/07 10:54:00;;;;;;;7.90;3.95;;;;;;;17.28;77.60;102118.47;7382821;19;20011;-69
2022/05/07 10:56:31;;;;;;;5.78;3.35;;;;;;;17.24;77.74;102119.78;7383076;19;20349;-69
2022/05/07 10:58:58;;;;;;;9.63;3.00;;;;;;;17.19;78.00;102117.63;7385174;19;20006;-68
2022/05/07 11:01:28;;;;;;;5.68;3.00;;;;;;;17.22;78.54;102114.63;7381254;19;20014;-67
2022/05/07 11:04:06;;;;;;;4.90;2.17;;;;;;;17.26;78.52;102115.16;7386149;19;20021;-69
2022/05/07 11:06:43;;;;;;;3.05;1.75;;;;;;;17.27;78.34;102120.28;7381557;19;20007;-68
2022/05/07 11:09:22;;;;;;;2.15;1.30;;;;;;;17.33;78.00;102127.63;7386738;19;20498;-68
2022/05/07 11:11:52;;;;;;;2.90;1.13;;;;;;;17.35;78.42;102128.31;7383062;19;20002;-67
2022/05/07 11:14:25;;;;;;;2.22;0.93;;;;;;;17.38;77.22;102121.81;7381004;19;20520;-68
2022/05/07 11:16:58;;;;;;;2.30;1.23;;;;;;;17.42;76.24;102123.97;7380812;19;20011;-68
2022/05/07 11:19:28;;;;;;;1.58;0.77;;;;;;;17.38;75.91;102119.13;7382339;19;20010;-67
2022/05/07 11:21:59;;;;;;;1.48;0.77;;;;;;;17.41;76.28;102121.50;7381327;19;20752;-67
2022/05/07 11:24:28;;;;;;;2.65;1.05;;;;;;;17.45;76.25;102122.81;7384707;19;20010;-69
2022/05/07 11:26:58;;;;;;;3.05;1.00;;;;;;;17.50;76.87;102118.66;7384117;19;20508;-68
2022/05/07 11:29:27;;;;;;;2.70;1.58;;;;;;;17.60;75.80;102123.00;7386508;19;20014;-67
2022/05/07 11:31:57;;;;;;;2.10;1.23;;;;;;;17.67;75.80;102116.03;7385482;19;20385;-69
2022/05/07 11:34:31;;;;;;;2.78;0.90;;;;;;;17.74;75.07;102117.00;7384900;19;20010;-67
2022/05/07 11:37:16;;;;;;;2.53;1.05;;;;;;;17.70;73.74;102123.69;7382514;19;20429;-68
2022/05/07 11:39:47;;;;;;;1.50;0.68;;;;;;;17.69;74.08;102132.66;7382904;19;20038;-68
2022/05/07 11:42:27;;;;;;;1.20;0.50;;;;;;;17.64;74.19;102124.34;7381481;19;20011;-69
2022/05/07 11:48:04;;;;;;;1.35;0.50;;;;;;;17.64;74.63;102132.31;7383044;19;20041;-67
2022/05/07 11:50:39;;;;;;;1.70;0.70;;;;;;;17.63;75.87;102128.00;7385819;19;20006;-69
2022/05/07 11:53:16;;;;;;;2.55;0.80;;;;;;;17.61;74.79;102130.84;7382342;19;20014;-68
2022/05/07 11:55:44;;;;;;;1.33;0.68;;;;;;;17.60;75.25;102134.50;7382942;19;20006;-67
2022/05/07 11:58:16;;;;;;;2.00;1.10;;;;;;;17.62;75.35;102126.34;7384721;19;20018;-65
2022/05/07 12:00:46;;;;;;;1.95;0.80;;;;;;;17.65;75.88;102128.66;7383234;19;20103;-68
2022/05/07 12:03:19;;;;;;;2.15;1.15;;;;;;;17.69;75.83;102127.34;7383687;19;20014;-70